Shana Des Slops — FFZR — position and weather

sailwx.info

Track history (hours):
 
Tides and Currents Weather Stations Pressure Air Temp Water Temp Dewpoint Dewpoint Depression Visibility Wind Speed Wind Dir Waves Ship Positions

Shana Des Slops

Last reported at 2017-Feb-22 10:33 UTC. Time now 2017-Feb-22 10:59 UTC.
Position N 43°24' E 004°59'.

Length 47 m; draft 3.2 m.

Type: Ship. MMSI: 228003800.

Date/timePositionNaut miles runAvg speedWind from/ knotsBaromVisibWave heightAir tempDewpointWater temp
2017-Feb-22 10:33N 43°24' E 004°59'0 0.0
2017-Feb-22 09:33N 43°24' E 004°59'0 0.0
2017-Feb-22 08:33N 43°24' E 004°59'0 0.0
2017-Feb-22 07:33N 43°24' E 004°59'1 0.6
2017-Feb-22 06:29N 43°24' E 004°60'0 0.0
2017-Feb-22 05:29N 43°24' E 004°60'0 0.0
2017-Feb-22 04:29N 43°24' E 004°60'0 0.0
2017-Feb-22 03:23N 43°24' E 004°60'0 0.0
2017-Feb-22 02:29N 43°24' E 004°60'0 0.0
2017-Feb-22 01:29N 43°24' E 004°60'0 0.0
2017-Feb-22 00:29N 43°24' E 004°60'0 0.0
2017-Feb-21 23:29N 43°24' E 004°60'0 0.0
2017-Feb-21 22:29N 43°24' E 004°60'0 0.0
2017-Feb-21 21:29N 43°24' E 004°60'0 0.0
2017-Feb-21 20:29N 43°24' E 004°60'0 0.0
2017-Feb-21 19:23N 43°24' E 004°60'0 0.0
2017-Feb-21 18:29N 43°24' E 004°60'0 0.0
2017-Feb-21 17:29N 43°24' E 004°60'0 0.0
2017-Feb-21 16:29N 43°24' E 004°60'0 0.0
2017-Feb-21 15:17N 43°24' E 004°60'1 1.3
2017-Feb-21 14:33N 43°24' E 004°59'4 1.9
2017-Feb-21 12:22N 43°24' E 004°53'0 0.0
2017-Feb-21 10:22N 43°24' E 004°53'0 0.0
2017-Feb-21 08:23N 43°24' E 004°53'3 2.8
2017-Feb-21 07:27N 43°24' E 004°57'2 2.1
2017-Feb-21 06:24N 43°24' E 004°60'0 0.0
2017-Feb-21 05:30N 43°24' E 004°60'0 0.0
2017-Feb-21 04:30N 43°24' E 004°60'0 0.0
2017-Feb-21 03:30N 43°24' E 004°60'0 0.0
2017-Feb-21 02:30N 43°24' E 004°60'0 0.0
2017-Feb-21 01:30N 43°24' E 004°60'0 0.0
2017-Feb-21 00:30N 43°24' E 004°60'0 0.0
2017-Feb-20 23:30N 43°24' E 004°60'0 0.0
2017-Feb-20 22:30N 43°24' E 004°60'0 0.0
2017-Feb-20 21:30N 43°24' E 004°60'0 0.0
2017-Feb-20 20:30N 43°24' E 004°60'0 0.0
2017-Feb-20 19:24N 43°24' E 004°60'0 0.0
2017-Feb-20 18:30N 43°24' E 004°60'0 0.0
2017-Feb-20 17:30N 43°24' E 004°60'0 0.0
2017-Feb-20 16:32N 43°24' E 004°60'0 0.0
2017-Feb-20 15:32N 43°24' E 004°60'0 0.0
2017-Feb-20 14:32N 43°24' E 004°60'0 0.0
2017-Feb-20 13:32N 43°24' E 004°60'0 0.0
2017-Feb-20 12:32N 43°24' E 004°60'0 0.0
2017-Feb-20 11:33N 43°24' E 004°60'0 0.0
2017-Feb-20 10:33N 43°24' E 004°60'0 0.0
2017-Feb-20 09:33N 43°24' E 004°60'0 0.0
2017-Feb-20 08:33N 43°24' E 004°60'0 0.0
2017-Feb-20 07:33N 43°24' E 004°60'1 1.2
2017-Feb-20 06:33N 43°23' E 004°59'4 1.9
2017-Feb-20 04:27N 43°26' E 004°54'4 4.9
2017-Feb-20 03:33N 43°24' E 004°59'1 0.5
2017-Feb-20 02:31N 43°24' E 004°60'0 0.0
2017-Feb-20 01:31N 43°24' E 004°60'0 0.0
2017-Feb-20 00:31N 43°24' E 004°60'0 0.0
2017-Feb-19 23:31N 43°24' E 004°60'0 0.0
2017-Feb-19 22:25N 43°24' E 004°60'0 0.0
2017-Feb-19 21:31N 43°24' E 004°60'0 0.0
2017-Feb-19 20:31N 43°24' E 004°60'0 0.0
2017-Feb-19 19:31N 43°24' E 004°60'0 0.0
2017-Feb-19 18:31N 43°24' E 004°60'0 0.0
2017-Feb-19 17:31N 43°24' E 004°60'0 0.0
2017-Feb-19 16:31N 43°24' E 004°60'0 0.0
2017-Feb-19 15:31N 43°24' E 004°60'0 0.0
2017-Feb-19 14:25N 43°24' E 004°60'0 0.0
2017-Feb-19 13:19N 43°24' E 004°60'0 0.0
2017-Feb-19 12:31N 43°24' E 004°60'0 0.0
2017-Feb-19 11:33N 43°24' E 004°60'0 0.0
2017-Feb-19 10:33N 43°24' E 004°60'0 0.0
2017-Feb-19 09:21N 43°24' E 004°60'0 0.0
2017-Feb-19 08:33N 43°24' E 004°60'0 0.0
2017-Feb-19 07:33N 43°24' E 004°60'0 0.0
2017-Feb-19 06:33N 43°24' E 004°60'0 0.0
2017-Feb-19 05:33N 43°24' E 004°60'0 0.0
2017-Feb-19 04:33N 43°24' E 004°60'0 0.0
2017-Feb-19 03:33N 43°24' E 004°60'0 0.0
2017-Feb-19 02:33N 43°24' E 004°60'0 0.0
2017-Feb-19 01:33N 43°24' E 004°60'0 0.0
2017-Feb-19 00:33N 43°24' E 004°60'0 0.0
2017-Feb-18 23:33N 43°24' E 004°60'0 0.0
2017-Feb-18 22:33N 43°24' E 004°60'0 0.0
2017-Feb-18 21:33N 43°24' E 004°60'0 0.0
2017-Feb-18 20:33N 43°24' E 004°60'0 0.0
2017-Feb-18 19:33N 43°24' E 004°60'0 0.0
2017-Feb-18 18:29N 43°24' E 004°60'0 0.0
2017-Feb-18 17:29N 43°24' E 004°60'0 0.0
2017-Feb-18 16:33N 43°24' E 004°60'0 0.0
2017-Feb-18 15:33N 43°24' E 004°60'0 0.0
2017-Feb-18 14:33N 43°24' E 004°60'2 1.6
2017-Feb-18 13:31N 43°23' E 004°58'0 0.0
2017-Feb-18 12:33N 43°23' E 004°58'2 1.7
2017-Feb-18 11:33N 43°24' E 004°60'0 0.0
2017-Feb-18 10:33N 43°24' E 004°60'0 0.0
2017-Feb-18 09:33N 43°24' E 004°60'0 0.0
2017-Feb-18 08:33N 43°24' E 004°60'0 0.0
2017-Feb-18 07:33N 43°24' E 004°60'0 0.0
2017-Feb-18 06:33N 43°24' E 004°60'0 0.0
2017-Feb-18 05:33N 43°24' E 004°60'0 0.0
2017-Feb-18 04:33N 43°24' E 004°60'0 0.0
2017-Feb-18 03:33N 43°24' E 004°60'0 0.0
2017-Feb-18 02:33N 43°24' E 004°60'0 0.0
2017-Feb-18 01:33N 43°24' E 004°60'0 0.0
2017-Feb-18 00:33N 43°24' E 004°60'0 0.0
2017-Feb-17 23:33N 43°24' E 004°60'0 0.0
2017-Feb-17 22:33N 43°24' E 004°60'0 0.0
2017-Feb-17 21:26N 43°24' E 004°60'4 4.1
2017-Feb-17 20:34N 43°24' E 004°55'2 0.9
2017-Feb-17 18:33N 43°26' E 004°54'0 0.0
2017-Feb-17 16:34N 43°26' E 004°54'0 0.0
2017-Feb-17 14:33N 43°26' E 004°54'3 2.5
2017-Feb-17 13:27N 43°24' E 004°57'2 2.6
2017-Feb-17 12:32N 43°24' E 004°60'0 0.0
2017-Feb-17 11:32N 43°24' E 004°60'0 0.0
2017-Feb-17 10:32N 43°24' E 004°60'0 0.0
2017-Feb-17 09:32N 43°24' E 004°60'0 0.0
2017-Feb-17 08:32N 43°24' E 004°60'0 0.0
2017-Feb-17 07:32N 43°24' E 004°60'0 0.0
2017-Feb-17 06:32N 43°24' E 004°60'0 0.0
2017-Feb-17 05:26N 43°24' E 004°60'0 0.0
2017-Feb-17 04:32N 43°24' E 004°60'0 0.0
2017-Feb-17 03:32N 43°24' E 004°60'0 0.0
2017-Feb-17 02:32N 43°24' E 004°60'0 0.0
2017-Feb-17 01:26N 43°24' E 004°60'0 0.0
2017-Feb-17 00:26N 43°24' E 004°60'0 0.0
2017-Feb-16 23:32N 43°24' E 004°60'0 0.0
2017-Feb-16 22:32N 43°24' E 004°60'0 0.0
2017-Feb-16 21:32N 43°24' E 004°60'0 0.0
2017-Feb-16 20:32N 43°24' E 004°60'0 0.0
2017-Feb-16 19:20N 43°24' E 004°60'1 1.8
2017-Feb-16 18:33N 43°23' E 004°58'1 0.1
2017-Feb-16 11:33N 43°24' E 004°59'1 0.7
2017-Feb-16 10:30N 43°24' E 004°60'0 0.0
2017-Feb-16 09:30N 43°24' E 004°60'0 0.0
2017-Feb-16 08:33N 43°24' E 004°60'0 0.0
2017-Feb-16 07:31N 43°24' E 004°60'0 0.0
2017-Feb-16 06:31N 43°24' E 004°60'0 0.0
2017-Feb-16 05:31N 43°24' E 004°60'0 0.0
2017-Feb-16 04:31N 43°24' E 004°60'0 0.0
2017-Feb-16 03:31N 43°24' E 004°60'0 0.0
2017-Feb-16 02:31N 43°24' E 004°60'0 0.0
2017-Feb-16 01:30N 43°24' E 004°60'0 0.0
2017-Feb-16 00:30N 43°24' E 004°60'0 0.0
2017-Feb-15 23:30N 43°24' E 004°60'0 0.0
2017-Feb-15 22:30N 43°24' E 004°60'0 0.0
2017-Feb-15 21:30N 43°24' E 004°60'0 0.0
2017-Feb-15 20:30N 43°24' E 004°60'0 0.0
2017-Feb-15 19:30N 43°24' E 004°60'0 0.0
2017-Feb-15 18:24N 43°24' E 004°60'0 0.0
2017-Feb-15 17:33N 43°24' E 004°60'0 0.0
2017-Feb-15 16:30N 43°24' E 004°60'1 0.9
2017-Feb-15 15:33N 43°24' E 004°59'1 0.3
2017-Feb-15 11:25N 43°24' E 004°57'2 2.4
2017-Feb-15 10:32N 43°24' E 004°60'0 0.0
2017-Feb-15 09:26N 43°24' E 004°60'0 0.0
2017-Feb-15 08:32N 43°24' E 004°60'0 0.0
2017-Feb-15 07:26N 43°24' E 004°60'0 0.0
2017-Feb-15 06:32N 43°24' E 004°60'0 0.0
2017-Feb-15 05:32N 43°24' E 004°60'0 0.0
2017-Feb-15 04:32N 43°24' E 004°60'0 0.0
2017-Feb-15 03:32N 43°24' E 004°60'0 0.0
2017-Feb-15 02:32N 43°24' E 004°60'0 0.0
2017-Feb-15 01:26N 43°24' E 004°60'0 0.0
2017-Feb-15 00:26N 43°24' E 004°60'0 0.0
2017-Feb-14 23:32N 43°24' E 004°60'0 0.0
2017-Feb-14 22:32N 43°24' E 004°60'0 0.0
2017-Feb-14 21:32N 43°24' E 004°60'0 0.0
2017-Feb-14 20:32N 43°24' E 004°60'0 0.0
2017-Feb-14 19:32N 43°24' E 004°60'0 0.0
2017-Feb-14 18:32N 43°24' E 004°60'0 0.0
2017-Feb-14 17:32N 43°24' E 004°60'0 0.0
2017-Feb-14 16:32N 43°24' E 004°60'0 0.0
2017-Feb-14 15:32N 43°24' E 004°60'0 0.0
2017-Feb-14 14:32N 43°24' E 004°60'0 0.0
2017-Feb-14 13:32N 43°24' E 004°60'0 0.0
2017-Feb-14 12:32N 43°24' E 004°60'0 0.0
2017-Feb-14 11:32N 43°24' E 004°60'2 0.6
2017-Feb-14 07:24N 43°23' E 004°57'2 2.7
2017-Feb-14 06:30N 43°24' E 004°60'0 0.0
2017-Feb-14 05:30N 43°24' E 004°60'0 0.0
2017-Feb-14 04:30N 43°24' E 004°60'0 0.0
2017-Feb-14 03:30N 43°24' E 004°60'0 0.0
2017-Feb-14 02:24N 43°24' E 004°60'0 0.0
2017-Feb-14 01:30N 43°24' E 004°60'0 0.0
2017-Feb-14 00:30N 43°24' E 004°60'0 0.0
2017-Feb-13 23:24N 43°24' E 004°60'0 0.0
2017-Feb-13 22:24N 43°24' E 004°60'0 0.0
2017-Feb-13 21:30N 43°24' E 004°60'0 0.0
2017-Feb-13 20:30N 43°24' E 004°60'0 0.0
2017-Feb-13 19:30N 43°24' E 004°60'0 0.0
2017-Feb-13 18:33N 43°24' E 004°60'0 0.0
2017-Feb-13 17:33N 43°24' E 004°60'0 0.0
2017-Feb-13 16:33N 43°24' E 004°60'0 0.0
2017-Feb-13 15:33N 43°24' E 004°60'0 0.0
2017-Feb-13 14:33N 43°24' E 004°60'0 0.0
2017-Feb-13 13:33N 43°24' E 004°60'0 0.0
2017-Feb-13 12:33N 43°24' E 004°60'0 0.0
2017-Feb-13 11:33N 43°24' E 004°60'0 0.0
2017-Feb-13 10:33N 43°24' E 004°60'0 0.0
2017-Feb-13 09:33N 43°24' E 004°60'0 0.0
2017-Feb-13 08:33N 43°24' E 004°60'0 0.0
2017-Feb-13 07:27N 43°24' E 004°60'0 0.0
2017-Feb-13 06:33N 43°24' E 004°60'0 0.0
2017-Feb-13 05:34N 43°24' E 004°60'0 0.2
2017-Feb-13 04:33N 43°24' E 004°60'0 0.0
2017-Feb-13 03:34N 43°24' E 004°60'0 0.0
2017-Feb-13 02:33N 43°24' E 004°60'0 0.0
2017-Feb-13 01:33N 43°24' E 004°60'0 0.2
2017-Feb-13 00:33N 43°24' E 004°60'0 0.0
2017-Feb-12 23:33N 43°24' E 004°60'0 0.0
2017-Feb-12 22:33N 43°24' E 004°60'0 0.0
2017-Feb-12 21:33N 43°24' E 004°60'0 0.0
2017-Feb-12 20:33N 43°24' E 004°60'0 0.0
2017-Feb-12 19:33N 43°24' E 004°60'0 0.0
2017-Feb-12 18:33N 43°24' E 004°60'0 0.0
2017-Feb-12 17:33N 43°24' E 004°60'0 0.0
2017-Feb-12 16:33N 43°24' E 004°60'0 0.0
2017-Feb-12 15:33N 43°24' E 004°60'0 0.0
2017-Feb-12 14:33N 43°24' E 004°60'0 0.0
2017-Feb-12 13:33N 43°24' E 004°60'0 0.0
2017-Feb-12 12:33N 43°24' E 004°60'0 0.0
2017-Feb-12 11:33N 43°24' E 004°60'  
Track history (hours):
 
Tides and Currents Weather Stations Pressure Air Temp Water Temp Dewpoint Dewpoint Depression Visibility Wind Speed Wind Dir Waves Ship Positions

Shana Des Slops

Last reported at 2017-Feb-22 10:33 UTC. Time now 2017-Feb-22 10:59 UTC.
Position N 43°24' E 004°59'.

Length 47 m; draft 3.2 m.

Type: Ship. MMSI: 228003800.

Date/timePositionNaut miles runAvg speedWind from/ knotsBaromVisibWave heightAir tempDewpointWater temp
2017-Feb-22 10:33N 43°24' E 004°59'0 0.0
2017-Feb-22 09:33N 43°24' E 004°59'0 0.0
2017-Feb-22 08:33N 43°24' E 004°59'0 0.0
2017-Feb-22 07:33N 43°24' E 004°59'1 0.6
2017-Feb-22 06:29N 43°24' E 004°60'0 0.0
2017-Feb-22 05:29N 43°24' E 004°60'0 0.0
2017-Feb-22 04:29N 43°24' E 004°60'0 0.0
2017-Feb-22 03:23N 43°24' E 004°60'0 0.0
2017-Feb-22 02:29N 43°24' E 004°60'0 0.0
2017-Feb-22 01:29N 43°24' E 004°60'0 0.0
2017-Feb-22 00:29N 43°24' E 004°60'0 0.0
2017-Feb-21 23:29N 43°24' E 004°60'0 0.0
2017-Feb-21 22:29N 43°24' E 004°60'0 0.0
2017-Feb-21 21:29N 43°24' E 004°60'0 0.0
2017-Feb-21 20:29N 43°24' E 004°60'0 0.0
2017-Feb-21 19:23N 43°24' E 004°60'0 0.0
2017-Feb-21 18:29N 43°24' E 004°60'0 0.0
2017-Feb-21 17:29N 43°24' E 004°60'0 0.0
2017-Feb-21 16:29N 43°24' E 004°60'0 0.0
2017-Feb-21 15:17N 43°24' E 004°60'1 1.3
2017-Feb-21 14:33N 43°24' E 004°59'4 1.9
2017-Feb-21 12:22N 43°24' E 004°53'0 0.0
2017-Feb-21 10:22N 43°24' E 004°53'0 0.0
2017-Feb-21 08:23N 43°24' E 004°53'3 2.8
2017-Feb-21 07:27N 43°24' E 004°57'2 2.1
2017-Feb-21 06:24N 43°24' E 004°60'0 0.0
2017-Feb-21 05:30N 43°24' E 004°60'0 0.0
2017-Feb-21 04:30N 43°24' E 004°60'0 0.0
2017-Feb-21 03:30N 43°24' E 004°60'0 0.0
2017-Feb-21 02:30N 43°24' E 004°60'0 0.0
2017-Feb-21 01:30N 43°24' E 004°60'0 0.0
2017-Feb-21 00:30N 43°24' E 004°60'0 0.0
2017-Feb-20 23:30N 43°24' E 004°60'0 0.0
2017-Feb-20 22:30N 43°24' E 004°60'0 0.0
2017-Feb-20 21:30N 43°24' E 004°60'0 0.0
2017-Feb-20 20:30N 43°24' E 004°60'0 0.0
2017-Feb-20 19:24N 43°24' E 004°60'0 0.0
2017-Feb-20 18:30N 43°24' E 004°60'0 0.0
2017-Feb-20 17:30N 43°24' E 004°60'0 0.0
2017-Feb-20 16:32N 43°24' E 004°60'0 0.0
2017-Feb-20 15:32N 43°24' E 004°60'0 0.0
2017-Feb-20 14:32N 43°24' E 004°60'0 0.0
2017-Feb-20 13:32N 43°24' E 004°60'0 0.0
2017-Feb-20 12:32N 43°24' E 004°60'0 0.0
2017-Feb-20 11:33N 43°24' E 004°60'0 0.0
2017-Feb-20 10:33N 43°24' E 004°60'0 0.0
2017-Feb-20 09:33N 43°24' E 004°60'0 0.0
2017-Feb-20 08:33N 43°24' E 004°60'0 0.0
2017-Feb-20 07:33N 43°24' E 004°60'1 1.2
2017-Feb-20 06:33N 43°23' E 004°59'4 1.9
2017-Feb-20 04:27N 43°26' E 004°54'4 4.9
2017-Feb-20 03:33N 43°24' E 004°59'1 0.5
2017-Feb-20 02:31N 43°24' E 004°60'0 0.0
2017-Feb-20 01:31N 43°24' E 004°60'0 0.0
2017-Feb-20 00:31N 43°24' E 004°60'0 0.0
2017-Feb-19 23:31N 43°24' E 004°60'0 0.0
2017-Feb-19 22:25N 43°24' E 004°60'0 0.0
2017-Feb-19 21:31N 43°24' E 004°60'0 0.0
2017-Feb-19 20:31N 43°24' E 004°60'0 0.0
2017-Feb-19 19:31N 43°24' E 004°60'0 0.0
2017-Feb-19 18:31N 43°24' E 004°60'0 0.0
2017-Feb-19 17:31N 43°24' E 004°60'0 0.0
2017-Feb-19 16:31N 43°24' E 004°60'0 0.0
2017-Feb-19 15:31N 43°24' E 004°60'0 0.0
2017-Feb-19 14:25N 43°24' E 004°60'0 0.0
2017-Feb-19 13:19N 43°24' E 004°60'0 0.0
2017-Feb-19 12:31N 43°24' E 004°60'0 0.0
2017-Feb-19 11:33N 43°24' E 004°60'0 0.0
2017-Feb-19 10:33N 43°24' E 004°60'0 0.0
2017-Feb-19 09:21N 43°24' E 004°60'0 0.0
2017-Feb-19 08:33N 43°24' E 004°60'0 0.0
2017-Feb-19 07:33N 43°24' E 004°60'0 0.0
2017-Feb-19 06:33N 43°24' E 004°60'0 0.0
2017-Feb-19 05:33N 43°24' E 004°60'0 0.0
2017-Feb-19 04:33N 43°24' E 004°60'0 0.0
2017-Feb-19 03:33N 43°24' E 004°60'0 0.0
2017-Feb-19 02:33N 43°24' E 004°60'0 0.0
2017-Feb-19 01:33N 43°24' E 004°60'0 0.0
2017-Feb-19 00:33N 43°24' E 004°60'0 0.0
2017-Feb-18 23:33N 43°24' E 004°60'0 0.0
2017-Feb-18 22:33N 43°24' E 004°60'0 0.0
2017-Feb-18 21:33N 43°24' E 004°60'0 0.0
2017-Feb-18 20:33N 43°24' E 004°60'0 0.0
2017-Feb-18 19:33N 43°24' E 004°60'0 0.0
2017-Feb-18 18:29N 43°24' E 004°60'0 0.0
2017-Feb-18 17:29N 43°24' E 004°60'0 0.0
2017-Feb-18 16:33N 43°24' E 004°60'0 0.0
2017-Feb-18 15:33N 43°24' E 004°60'0 0.0
2017-Feb-18 14:33N 43°24' E 004°60'2 1.6
2017-Feb-18 13:31N 43°23' E 004°58'0 0.0
2017-Feb-18 12:33N 43°23' E 004°58'2 1.7
2017-Feb-18 11:33N 43°24' E 004°60'0 0.0
2017-Feb-18 10:33N 43°24' E 004°60'0 0.0
2017-Feb-18 09:33N 43°24' E 004°60'0 0.0
2017-Feb-18 08:33N 43°24' E 004°60'0 0.0
2017-Feb-18 07:33N 43°24' E 004°60'0 0.0
2017-Feb-18 06:33N 43°24' E 004°60'0 0.0
2017-Feb-18 05:33N 43°24' E 004°60'0 0.0
2017-Feb-18 04:33N 43°24' E 004°60'0 0.0
2017-Feb-18 03:33N 43°24' E 004°60'0 0.0
2017-Feb-18 02:33N 43°24' E 004°60'0 0.0
2017-Feb-18 01:33N 43°24' E 004°60'0 0.0
2017-Feb-18 00:33N 43°24' E 004°60'0 0.0
2017-Feb-17 23:33N 43°24' E 004°60'0 0.0
2017-Feb-17 22:33N 43°24' E 004°60'0 0.0
2017-Feb-17 21:26N 43°24' E 004°60'4 4.1
2017-Feb-17 20:34N 43°24' E 004°55'2 0.9
2017-Feb-17 18:33N 43°26' E 004°54'0 0.0
2017-Feb-17 16:34N 43°26' E 004°54'0 0.0
2017-Feb-17 14:33N 43°26' E 004°54'3 2.5
2017-Feb-17 13:27N 43°24' E 004°57'2 2.6
2017-Feb-17 12:32N 43°24' E 004°60'0 0.0
2017-Feb-17 11:32N 43°24' E 004°60'0 0.0
2017-Feb-17 10:32N 43°24' E 004°60'0 0.0
2017-Feb-17 09:32N 43°24' E 004°60'0 0.0
2017-Feb-17 08:32N 43°24' E 004°60'0 0.0
2017-Feb-17 07:32N 43°24' E 004°60'0 0.0
2017-Feb-17 06:32N 43°24' E 004°60'0 0.0
2017-Feb-17 05:26N 43°24' E 004°60'0 0.0
2017-Feb-17 04:32N 43°24' E 004°60'0 0.0
2017-Feb-17 03:32N 43°24' E 004°60'0 0.0
2017-Feb-17 02:32N 43°24' E 004°60'0 0.0
2017-Feb-17 01:26N 43°24' E 004°60'0 0.0
2017-Feb-17 00:26N 43°24' E 004°60'0 0.0
2017-Feb-16 23:32N 43°24' E 004°60'0 0.0
2017-Feb-16 22:32N 43°24' E 004°60'0 0.0
2017-Feb-16 21:32N 43°24' E 004°60'0 0.0
2017-Feb-16 20:32N 43°24' E 004°60'0 0.0
2017-Feb-16 19:20N 43°24' E 004°60'1 1.8
2017-Feb-16 18:33N 43°23' E 004°58'1 0.1
2017-Feb-16 11:33N 43°24' E 004°59'1 0.7
2017-Feb-16 10:30N 43°24' E 004°60'0 0.0
2017-Feb-16 09:30N 43°24' E 004°60'0 0.0
2017-Feb-16 08:33N 43°24' E 004°60'0 0.0
2017-Feb-16 07:31N 43°24' E 004°60'0 0.0
2017-Feb-16 06:31N 43°24' E 004°60'0 0.0
2017-Feb-16 05:31N 43°24' E 004°60'0 0.0
2017-Feb-16 04:31N 43°24' E 004°60'0 0.0
2017-Feb-16 03:31N 43°24' E 004°60'0 0.0
2017-Feb-16 02:31N 43°24' E 004°60'0 0.0
2017-Feb-16 01:30N 43°24' E 004°60'0 0.0
2017-Feb-16 00:30N 43°24' E 004°60'0 0.0
2017-Feb-15 23:30N 43°24' E 004°60'0 0.0
2017-Feb-15 22:30N 43°24' E 004°60'0 0.0
2017-Feb-15 21:30N 43°24' E 004°60'0 0.0
2017-Feb-15 20:30N 43°24' E 004°60'0 0.0
2017-Feb-15 19:30N 43°24' E 004°60'0 0.0
2017-Feb-15 18:24N 43°24' E 004°60'0 0.0
2017-Feb-15 17:33N 43°24' E 004°60'0 0.0
2017-Feb-15 16:30N 43°24' E 004°60'1 0.9
2017-Feb-15 15:33N 43°24' E 004°59'1 0.3
2017-Feb-15 11:25N 43°24' E 004°57'2 2.4
2017-Feb-15 10:32N 43°24' E 004°60'0 0.0
2017-Feb-15 09:26N 43°24' E 004°60'0 0.0
2017-Feb-15 08:32N 43°24' E 004°60'0 0.0
2017-Feb-15 07:26N 43°24' E 004°60'0 0.0
2017-Feb-15 06:32N 43°24' E 004°60'0 0.0
2017-Feb-15 05:32N 43°24' E 004°60'0 0.0
2017-Feb-15 04:32N 43°24' E 004°60'0 0.0
2017-Feb-15 03:32N 43°24' E 004°60'0 0.0
2017-Feb-15 02:32N 43°24' E 004°60'0 0.0
2017-Feb-15 01:26N 43°24' E 004°60'0 0.0
2017-Feb-15 00:26N 43°24' E 004°60'0 0.0
2017-Feb-14 23:32N 43°24' E 004°60'0 0.0
2017-Feb-14 22:32N 43°24' E 004°60'0 0.0
2017-Feb-14 21:32N 43°24' E 004°60'0 0.0
2017-Feb-14 20:32N 43°24' E 004°60'0 0.0
2017-Feb-14 19:32N 43°24' E 004°60'0 0.0
2017-Feb-14 18:32N 43°24' E 004°60'0 0.0
2017-Feb-14 17:32N 43°24' E 004°60'0 0.0
2017-Feb-14 16:32N 43°24' E 004°60'0 0.0
2017-Feb-14 15:32N 43°24' E 004°60'0 0.0
2017-Feb-14 14:32N 43°24' E 004°60'0 0.0
2017-Feb-14 13:32N 43°24' E 004°60'0 0.0
2017-Feb-14 12:32N 43°24' E 004°60'0 0.0
2017-Feb-14 11:32N 43°24' E 004°60'2 0.6
2017-Feb-14 07:24N 43°23' E 004°57'2 2.7
2017-Feb-14 06:30N 43°24' E 004°60'0 0.0
2017-Feb-14 05:30N 43°24' E 004°60'0 0.0
2017-Feb-14 04:30N 43°24' E 004°60'0 0.0
2017-Feb-14 03:30N 43°24' E 004°60'0 0.0
2017-Feb-14 02:24N 43°24' E 004°60'0 0.0
2017-Feb-14 01:30N 43°24' E 004°60'0 0.0
2017-Feb-14 00:30N 43°24' E 004°60'0 0.0
2017-Feb-13 23:24N 43°24' E 004°60'0 0.0
2017-Feb-13 22:24N 43°24' E 004°60'0 0.0
2017-Feb-13 21:30N 43°24' E 004°60'0 0.0
2017-Feb-13 20:30N 43°24' E 004°60'0 0.0
2017-Feb-13 19:30N 43°24' E 004°60'0 0.0
2017-Feb-13 18:33N 43°24' E 004°60'0 0.0
2017-Feb-13 17:33N 43°24' E 004°60'0 0.0
2017-Feb-13 16:33N 43°24' E 004°60'0 0.0
2017-Feb-13 15:33N 43°24' E 004°60'0 0.0
2017-Feb-13 14:33N 43°24' E 004°60'0 0.0
2017-Feb-13 13:33N 43°24' E 004°60'0 0.0
2017-Feb-13 12:33N 43°24' E 004°60'0 0.0
2017-Feb-13 11:33N 43°24' E 004°60'0 0.0
2017-Feb-13 10:33N 43°24' E 004°60'0 0.0
2017-Feb-13 09:33N 43°24' E 004°60'0 0.0
2017-Feb-13 08:33N 43°24' E 004°60'0 0.0
2017-Feb-13 07:27N 43°24' E 004°60'0 0.0
2017-Feb-13 06:33N 43°24' E 004°60'0 0.0
2017-Feb-13 05:34N 43°24' E 004°60'0 0.2
2017-Feb-13 04:33N 43°24' E 004°60'0 0.0
2017-Feb-13 03:34N 43°24' E 004°60'0 0.0
2017-Feb-13 02:33N 43°24' E 004°60'0 0.0
2017-Feb-13 01:33N 43°24' E 004°60'0 0.2
2017-Feb-13 00:33N 43°24' E 004°60'0 0.0
2017-Feb-12 23:33N 43°24' E 004°60'0 0.0
2017-Feb-12 22:33N 43°24' E 004°60'0 0.0
2017-Feb-12 21:33N 43°24' E 004°60'0 0.0
2017-Feb-12 20:33N 43°24' E 004°60'0 0.0
2017-Feb-12 19:33N 43°24' E 004°60'0 0.0
2017-Feb-12 18:33N 43°24' E 004°60'0 0.0
2017-Feb-12 17:33N 43°24' E 004°60'0 0.0
2017-Feb-12 16:33N 43°24' E 004°60'0 0.0
2017-Feb-12 15:33N 43°24' E 004°60'0 0.0
2017-Feb-12 14:33N 43°24' E 004°60'0 0.0
2017-Feb-12 13:33N 43°24' E 004°60'0 0.0
2017-Feb-12 12:33N 43°24' E 004°60'0 0.0
2017-Feb-12 11:33N 43°24' E 004°60'  

Dump ship's entire track history